Weather at Draughon Miller Central Texas Regional Airport

Public forecast

Using degrees Fahrenheit for public forecast. Weather courtesy of forecast.io.

Current aviation weather report (METAR) for Draughon Miller Central Texas Regional Airport

2024/06/16 11:51 (retrieved 15 minutes ago)

KTPL 161151Z AUTO 16005KT 6SM BR CLR 23/23 A2990 RMK AO2 SLP116 T02330228 10267 20233 53013

Closest aviation forecast (TAF) to Draughon Miller Central Texas Regional Airport

Closest forecast is Killeen-Fort Hood Regional Airport / Robert Gray Army Air Field, 22.2 nm (41.2 km) WSW.

2024/06/16 08:00 (retrieved 4 hours ago)

TAF KGRK 160800Z 1608/1714 15012KT 9999 BKN015 QNH2987INS BECMG 1614/1615 15012G20KT 9999 SCT025 BKN045 QNH2981INS BECMG 1708/1709 15006KT 9999 BKN015 QNH2982INS TX33/1621Z TN23/1612Z